Howard Blank — WDF2314 — position and weather

sailwx.info

Track history (hours):
 
Tides and Currents Weather Stations Pressure Air Temp Water Temp Dewpoint Dewpoint Depression Visibility Wind Speed Wind Dir Waves Ship Positions

Howard Blank

Owner: Florida Marine Transporters, Inc., Mandeville, LA. More information available from US FCC via Universal Licensing System and Coast Guard Vessel Documentation Center.

Last reported at 2017-Oct-19 07:55 UTC. Time now 2017-Oct-23 05:57 UTC.
Position N 29°33' W 094°28'.

Length 27 m; draft 2.9 m.

Type: Towing. MMSI: 367427260.

Date/timePositionNaut miles runAvg speedWind from/ knotsBaromVisibWave heightAir tempDewpointWater temp
2017-Oct-19 07:55N 29°33' W 094°28'1 3.5
2017-Oct-19 07:29N 29°34' W 094°26'  
2017-Oct-17 01:24N 29°30' W 094°52'3 6.9
2017-Oct-17 01:00N 29°32' W 094°54'3 6.7
2017-Oct-17 00:30N 29°35' W 094°56'3 6.1
2017-Oct-17 00:00N 29°37' W 094°58'3 5.6
2017-Oct-16 23:30N 29°37' W 095°01'0 0.1
2017-Oct-16 23:00N 29°37' W 095°01'0 0.0
2017-Oct-16 22:30N 29°37' W 095°01'0 0.2
2017-Oct-16 22:01N 29°37' W 095°01'0 0.2
2017-Oct-16 21:30N 29°37' W 095°02'0 0.0
2017-Oct-16 21:00N 29°37' W 095°02'0 0.0
2017-Oct-16 20:30N 29°37' W 095°02'0 0.0
2017-Oct-16 20:00N 29°37' W 095°02'0 0.0
2017-Oct-16 19:30N 29°37' W 095°02'0 0.0
2017-Oct-16 19:00N 29°37' W 095°02'0 0.0
2017-Oct-16 18:30N 29°37' W 095°02'0 0.0
2017-Oct-16 18:00N 29°37' W 095°02'0 0.0
2017-Oct-16 17:30N 29°37' W 095°02'0 0.0
2017-Oct-16 17:00N 29°37' W 095°02'0 0.0
2017-Oct-16 16:29N 29°37' W 095°02'0 0.0
2017-Oct-16 16:00N 29°37' W 095°02'0 0.0
2017-Oct-16 15:30N 29°37' W 095°02'0 0.0
2017-Oct-16 15:00N 29°37' W 095°02'0 0.0
2017-Oct-16 14:30N 29°37' W 095°02'0 0.0
2017-Oct-16 13:30N 29°37' W 095°02'0 0.0
2017-Oct-16 13:00N 29°37' W 095°02'0 0.0
2017-Oct-16 12:30N 29°37' W 095°02'0 0.0
2017-Oct-16 12:00N 29°37' W 095°02'0 0.1
2017-Oct-16 11:30N 29°37' W 095°01'0 0.0
2017-Oct-16 11:00N 29°37' W 095°01'0 0.0
2017-Oct-16 10:30N 29°37' W 095°01'0 0.0
2017-Oct-16 10:00N 29°37' W 095°01'0 0.0
2017-Oct-16 09:30N 29°37' W 095°01'0 0.3
2017-Oct-16 09:01N 29°37' W 095°01'2 4.0
2017-Oct-16 08:30N 29°37' W 094°59'1 2.7
2017-Oct-16 08:00N 29°37' W 094°58'1 2.0
2017-Oct-16 07:30N 29°38' W 094°58'3 6.6
2017-Oct-16 07:00N 29°42' W 094°59'4 6.2
2017-Oct-16 06:26N 29°44' W 095°02'3 6.4
2017-Oct-16 05:59N 29°46' W 095°05'1 0.5
2017-Oct-16 04:07N 29°47' W 095°05'1 5.0
2017-Oct-16 03:55N 29°46' W 095°05'1 2.3
2017-Oct-16 03:29N 29°46' W 095°06'0 0.0
2017-Oct-16 02:58N 29°46' W 095°06'0 0.0
2017-Oct-16 02:30N 29°46' W 095°06'0 0.0
2017-Oct-16 01:57N 29°46' W 095°06'0 0.0
2017-Oct-16 01:30N 29°46' W 095°06'0 0.0
2017-Oct-15 23:32N 29°46' W 095°06'0 0.0
2017-Oct-15 23:23N 29°46' W 095°06'0 0.0
2017-Oct-15 22:52N 29°46' W 095°06'0 0.0
2017-Oct-15 22:27N 29°46' W 095°06'0 0.0
2017-Oct-15 21:29N 29°46' W 095°06'1 0.2
2017-Oct-15 16:36N 29°46' W 095°05'1 5.9
2017-Oct-15 16:28N 29°47' W 095°05'1 2.5
2017-Oct-15 16:00N 29°47' W 095°04'0 0.0
2017-Oct-15 15:30N 29°47' W 095°04'0 0.0
2017-Oct-15 14:59N 29°47' W 095°04'2 1.8
2017-Oct-15 13:54N 29°46' W 095°05'4 0.2
2017-Oct-14 18:00N 29°45' W 095°10'3 6.0
2017-Oct-14 17:30N 29°44' W 095°07'3 5.7
2017-Oct-14 17:00N 29°47' W 095°05'1 1.9
2017-Oct-14 16:29N 29°47' W 095°04'0 0.1
2017-Oct-14 15:55N 29°47' W 095°04'0 0.0
2017-Oct-14 15:30N 29°47' W 095°04'1 1.7
2017-Oct-14 14:57N 29°47' W 095°05'1 1.4
2017-Oct-14 13:54N 29°46' W 095°06'0 0.0
2017-Oct-14 13:30N 29°46' W 095°06'0 0.0
2017-Oct-14 12:57N 29°46' W 095°06'0 0.0
2017-Oct-14 12:29N 29°46' W 095°06'0 0.0
2017-Oct-14 11:35N 29°46' W 095°06'0 0.0
2017-Oct-14 11:14N 29°46' W 095°06'0 0.0
2017-Oct-14 10:54N 29°46' W 095°06'0 0.0
2017-Oct-14 05:37N 29°46' W 095°06'0 0.0
2017-Oct-14 05:26N 29°46' W 095°06'0 0.0
2017-Oct-13 22:42N 29°46' W 095°06'0 0.0
2017-Oct-13 22:30N 29°46' W 095°06'0 0.0
2017-Oct-13 22:00N 29°46' W 095°06'0 0.0
2017-Oct-13 21:27N 29°46' W 095°06'0 0.0
2017-Oct-13 14:04N 29°46' W 095°06'0 0.0
2017-Oct-13 10:58N 29°46' W 095°06'1 1.6
2017-Oct-13 10:28N 29°46' W 095°05'3 6.6
2017-Oct-13 09:59N 29°44' W 095°02'1 1.9
2017-Oct-13 09:30N 29°44' W 095°01'0 0.2
2017-Oct-13 08:59N 29°44' W 095°02'3 6.5
2017-Oct-13 08:30N 29°46' W 095°04'2 4.0
2017-Oct-13 08:00N 29°47' W 095°04'0 0.2
2017-Oct-13 05:46N 29°47' W 095°04'1 3.8
2017-Oct-13 05:22N 29°46' W 095°05'2 5.5
2017-Oct-13 04:59N 29°44' W 095°03'2 1.6
2017-Oct-13 03:52N 29°44' W 095°01'0 0.0
2017-Oct-13 03:23N 29°44' W 095°01'0 0.1
2017-Oct-13 02:27N 29°44' W 095°01'0 0.0
2017-Oct-13 01:59N 29°44' W 095°01'0 0.6
2017-Oct-13 01:29N 29°44' W 095°02'2 4.3
2017-Oct-13 00:55N 29°45' W 095°04'2 5.1
2017-Oct-13 00:28N 29°47' W 095°04'0 0.1
2017-Oct-13 00:00N 29°47' W 095°04'2 0.3
2017-Oct-12 17:28N 29°46' W 095°05'1 0.3
2017-Oct-12 15:02N 29°46' W 095°06'1 5.8
2017-Oct-12 14:57N 29°45' W 095°06'1 0.7
2017-Oct-12 13:46N 29°46' W 095°05'2 5.6
2017-Oct-12 13:27N 29°44' W 095°04'3 5.6
2017-Oct-12 12:58N 29°43' W 095°01'3 5.5
2017-Oct-12 12:30N 29°41' W 094°59'3 6.8
2017-Oct-12 12:00N 29°38' W 094°58'3 6.9
2017-Oct-12 11:31N 29°35' W 094°56'3 6.5
2017-Oct-12 11:00N 29°32' W 094°54'3 5.7
2017-Oct-12 10:30N 29°30' W 094°52'  
Track history (hours):
 
Tides and Currents Weather Stations Pressure Air Temp Water Temp Dewpoint Dewpoint Depression Visibility Wind Speed Wind Dir Waves Ship Positions

Howard Blank

Owner: Florida Marine Transporters, Inc., Mandeville, LA. More information available from US FCC via Universal Licensing System and Coast Guard Vessel Documentation Center.

Last reported at 2017-Oct-19 07:55 UTC. Time now 2017-Oct-23 05:57 UTC.
Position N 29°33' W 094°28'.

Length 27 m; draft 2.9 m.

Type: Towing. MMSI: 367427260.

Date/timePositionNaut miles runAvg speedWind from/ knotsBaromVisibWave heightAir tempDewpointWater temp
2017-Oct-19 07:55N 29°33' W 094°28'1 3.5
2017-Oct-19 07:29N 29°34' W 094°26'  
2017-Oct-17 01:24N 29°30' W 094°52'3 6.9
2017-Oct-17 01:00N 29°32' W 094°54'3 6.7
2017-Oct-17 00:30N 29°35' W 094°56'3 6.1
2017-Oct-17 00:00N 29°37' W 094°58'3 5.6
2017-Oct-16 23:30N 29°37' W 095°01'0 0.1
2017-Oct-16 23:00N 29°37' W 095°01'0 0.0
2017-Oct-16 22:30N 29°37' W 095°01'0 0.2
2017-Oct-16 22:01N 29°37' W 095°01'0 0.2
2017-Oct-16 21:30N 29°37' W 095°02'0 0.0
2017-Oct-16 21:00N 29°37' W 095°02'0 0.0
2017-Oct-16 20:30N 29°37' W 095°02'0 0.0
2017-Oct-16 20:00N 29°37' W 095°02'0 0.0
2017-Oct-16 19:30N 29°37' W 095°02'0 0.0
2017-Oct-16 19:00N 29°37' W 095°02'0 0.0
2017-Oct-16 18:30N 29°37' W 095°02'0 0.0
2017-Oct-16 18:00N 29°37' W 095°02'0 0.0
2017-Oct-16 17:30N 29°37' W 095°02'0 0.0
2017-Oct-16 17:00N 29°37' W 095°02'0 0.0
2017-Oct-16 16:29N 29°37' W 095°02'0 0.0
2017-Oct-16 16:00N 29°37' W 095°02'0 0.0
2017-Oct-16 15:30N 29°37' W 095°02'0 0.0
2017-Oct-16 15:00N 29°37' W 095°02'0 0.0
2017-Oct-16 14:30N 29°37' W 095°02'0 0.0
2017-Oct-16 13:30N 29°37' W 095°02'0 0.0
2017-Oct-16 13:00N 29°37' W 095°02'0 0.0
2017-Oct-16 12:30N 29°37' W 095°02'0 0.0
2017-Oct-16 12:00N 29°37' W 095°02'0 0.1
2017-Oct-16 11:30N 29°37' W 095°01'0 0.0
2017-Oct-16 11:00N 29°37' W 095°01'0 0.0
2017-Oct-16 10:30N 29°37' W 095°01'0 0.0
2017-Oct-16 10:00N 29°37' W 095°01'0 0.0
2017-Oct-16 09:30N 29°37' W 095°01'0 0.3
2017-Oct-16 09:01N 29°37' W 095°01'2 4.0
2017-Oct-16 08:30N 29°37' W 094°59'1 2.7
2017-Oct-16 08:00N 29°37' W 094°58'1 2.0
2017-Oct-16 07:30N 29°38' W 094°58'3 6.6
2017-Oct-16 07:00N 29°42' W 094°59'4 6.2
2017-Oct-16 06:26N 29°44' W 095°02'3 6.4
2017-Oct-16 05:59N 29°46' W 095°05'1 0.5
2017-Oct-16 04:07N 29°47' W 095°05'1 5.0
2017-Oct-16 03:55N 29°46' W 095°05'1 2.3
2017-Oct-16 03:29N 29°46' W 095°06'0 0.0
2017-Oct-16 02:58N 29°46' W 095°06'0 0.0
2017-Oct-16 02:30N 29°46' W 095°06'0 0.0
2017-Oct-16 01:57N 29°46' W 095°06'0 0.0
2017-Oct-16 01:30N 29°46' W 095°06'0 0.0
2017-Oct-15 23:32N 29°46' W 095°06'0 0.0
2017-Oct-15 23:23N 29°46' W 095°06'0 0.0
2017-Oct-15 22:52N 29°46' W 095°06'0 0.0
2017-Oct-15 22:27N 29°46' W 095°06'0 0.0
2017-Oct-15 21:29N 29°46' W 095°06'1 0.2
2017-Oct-15 16:36N 29°46' W 095°05'1 5.9
2017-Oct-15 16:28N 29°47' W 095°05'1 2.5
2017-Oct-15 16:00N 29°47' W 095°04'0 0.0
2017-Oct-15 15:30N 29°47' W 095°04'0 0.0
2017-Oct-15 14:59N 29°47' W 095°04'2 1.8
2017-Oct-15 13:54N 29°46' W 095°05'4 0.2
2017-Oct-14 18:00N 29°45' W 095°10'3 6.0
2017-Oct-14 17:30N 29°44' W 095°07'3 5.7
2017-Oct-14 17:00N 29°47' W 095°05'1 1.9
2017-Oct-14 16:29N 29°47' W 095°04'0 0.1
2017-Oct-14 15:55N 29°47' W 095°04'0 0.0
2017-Oct-14 15:30N 29°47' W 095°04'1 1.7
2017-Oct-14 14:57N 29°47' W 095°05'1 1.4
2017-Oct-14 13:54N 29°46' W 095°06'0 0.0
2017-Oct-14 13:30N 29°46' W 095°06'0 0.0
2017-Oct-14 12:57N 29°46' W 095°06'0 0.0
2017-Oct-14 12:29N 29°46' W 095°06'0 0.0
2017-Oct-14 11:35N 29°46' W 095°06'0 0.0
2017-Oct-14 11:14N 29°46' W 095°06'0 0.0
2017-Oct-14 10:54N 29°46' W 095°06'0 0.0
2017-Oct-14 05:37N 29°46' W 095°06'0 0.0
2017-Oct-14 05:26N 29°46' W 095°06'0 0.0
2017-Oct-13 22:42N 29°46' W 095°06'0 0.0
2017-Oct-13 22:30N 29°46' W 095°06'0 0.0
2017-Oct-13 22:00N 29°46' W 095°06'0 0.0
2017-Oct-13 21:27N 29°46' W 095°06'0 0.0
2017-Oct-13 14:04N 29°46' W 095°06'0 0.0
2017-Oct-13 10:58N 29°46' W 095°06'1 1.6
2017-Oct-13 10:28N 29°46' W 095°05'3 6.6
2017-Oct-13 09:59N 29°44' W 095°02'1 1.9
2017-Oct-13 09:30N 29°44' W 095°01'0 0.2
2017-Oct-13 08:59N 29°44' W 095°02'3 6.5
2017-Oct-13 08:30N 29°46' W 095°04'2 4.0
2017-Oct-13 08:00N 29°47' W 095°04'0 0.2
2017-Oct-13 05:46N 29°47' W 095°04'1 3.8
2017-Oct-13 05:22N 29°46' W 095°05'2 5.5
2017-Oct-13 04:59N 29°44' W 095°03'2 1.6
2017-Oct-13 03:52N 29°44' W 095°01'0 0.0
2017-Oct-13 03:23N 29°44' W 095°01'0 0.1
2017-Oct-13 02:27N 29°44' W 095°01'0 0.0
2017-Oct-13 01:59N 29°44' W 095°01'0 0.6
2017-Oct-13 01:29N 29°44' W 095°02'2 4.3
2017-Oct-13 00:55N 29°45' W 095°04'2 5.1
2017-Oct-13 00:28N 29°47' W 095°04'0 0.1
2017-Oct-13 00:00N 29°47' W 095°04'2 0.3
2017-Oct-12 17:28N 29°46' W 095°05'1 0.3
2017-Oct-12 15:02N 29°46' W 095°06'1 5.8
2017-Oct-12 14:57N 29°45' W 095°06'1 0.7
2017-Oct-12 13:46N 29°46' W 095°05'2 5.6
2017-Oct-12 13:27N 29°44' W 095°04'3 5.6
2017-Oct-12 12:58N 29°43' W 095°01'3 5.5
2017-Oct-12 12:30N 29°41' W 094°59'3 6.8
2017-Oct-12 12:00N 29°38' W 094°58'3 6.9
2017-Oct-12 11:31N 29°35' W 094°56'3 6.5
2017-Oct-12 11:00N 29°32' W 094°54'3 5.7
2017-Oct-12 10:30N 29°30' W 094°52'  

Dump ship's entire track history